Time;durP1;ratioP1;P1;durP2;ratioP2;P2;SDS_P1;SDS_P2;PMS_P1;PMS_P2;Temp;Humidity;BMP_temperature;BMP_pressure;BME280_temperature;BME280_humidity;BME280_pressure;Samples;Min_cycle;Max_cycle;Signal;HPM_P1;HPM_P2
2021/04/13 00:00:24;;;;;;;0.57;0.57;;;;;;;7.54;94.34;101146.61;1732918;82;21110;-45
2021/04/13 00:02:52;;;;;;;1.20;1.15;;;;;;;7.56;94.37;101141.45;1730649;82;21095;-44
2021/04/13 00:05:42;;;;;;;6.65;1.55;;;;;;;7.57;94.41;101145.30;1725375;82;21137;-44
2021/04/13 00:08:20;;;;;;;3.72;1.67;;;;;;;7.57;94.45;101145.30;1729906;82;21961;-45
2021/04/13 00:10:54;;;;;;;0.75;0.75;;;;;;;7.58;94.53;101147.48;1732331;81;21421;-45
2021/04/13 00:13:22;;;;;;;0.65;0.65;;;;;;;7.58;94.54;101145.58;1732268;82;21162;-44
2021/04/13 00:15:54;;;;;;;0.93;0.93;;;;;;;7.61;94.56;101155.14;1732428;81;21109;-44
2021/04/13 00:18:27;;;;;;;2.05;1.02;;;;;;;7.61;94.62;101149.16;1731773;82;26978;-44
2021/04/13 00:21:10;;;;;;;2.30;1.92;;;;;;;7.62;94.70;101146.75;1732539;82;21153;-45
2021/04/13 00:23:37;;;;;;;0.90;0.88;;;;;;;7.64;94.73;101143.27;1732410;82;21138;-44
2021/04/13 00:26:06;;;;;;;1.65;1.10;;;;;;;7.63;94.70;101147.03;1732420;82;21126;-45
2021/04/13 00:28:38;;;;;;;1.47;0.88;;;;;;;7.64;94.63;101150.06;1681074;82;21146;-44
2021/04/13 00:31:07;;;;;;;4.78;2.15;;;;;;;7.65;94.59;101150.88;1701370;84;21178;-45
2021/04/13 00:33:38;;;;;;;1.72;1.62;;;;;;;7.65;94.60;101146.27;1701481;84;21211;-44
2021/04/13 00:36:12;;;;;;;0.65;0.65;;;;;;;7.64;94.59;101149.21;1709438;82;21162;-44
2021/04/13 00:38:49;;;;;;;3.77;2.58;;;;;;;7.65;94.56;101150.88;1732284;82;21473;-45
2021/04/13 00:41:23;;;;;;;1.57;1.50;;;;;;;7.64;94.51;101144.63;1732369;82;21445;-44
2021/04/13 00:44:08;;;;;;;1.85;1.62;;;;;;;7.64;94.48;101148.70;1732241;82;21197;-44
2021/04/13 00:46:40;;;;;;;0.30;0.30;;;;;;;7.63;94.48;101146.21;1719802;82;21157;-44
2021/04/13 00:49:10;;;;;;;1.00;1.00;;;;;;;7.60;94.50;101140.73;1701661;84;21158;-45
2021/04/13 00:51:50;;;;;;;2.02;1.82;;;;;;;7.58;94.54;101138.77;1701886;84;21150;-44
2021/04/13 00:54:30;;;;;;;2.62;2.02;;;;;;;7.58;94.60;101135.23;1701758;82;21146;-44
2021/04/13 00:57:03;;;;;;;3.87;2.33;;;;;;;7.57;94.63;101139.86;1730711;82;21628;-45
2021/04/13 00:59:34;;;;;;;1.37;0.82;;;;;;;7.56;94.71;101139.55;1702981;82;21489;-44
2021/04/13 01:02:05;;;;;;;1.80;1.70;;;;;;;7.55;94.77;101143.34;1732577;82;21158;-45
2021/04/13 01:04:41;;;;;;;1.27;1.13;;;;;;;7.52;94.74;101140.58;1717370;81;21115;-44
2021/04/13 01:07:16;;;;;;;0.78;0.78;;;;;;;7.49;94.76;101141.58;1698594;84;21730;-44
2021/04/13 01:09:50;;;;;;;0.53;0.53;;;;;;;7.45;94.90;101140.43;1701505;84;21189;-44
2021/04/13 01:12:23;;;;;;;;;;;;;;;7.42;95.03;101135.45;1706013;82;21157;-45
2021/04/13 01:14:52;;;;;;;0.78;0.78;;;;;;;7.40;95.15;101143.05;1701434;84;20289;-45
2021/04/13 01:17:22;;;;;;;1.20;1.10;;;;;;;7.38;95.37;101137.84;1701421;84;21142;-44
2021/04/13 01:20:16;;;;;;;2.20;1.92;;;;;;;7.39;95.55;101138.66;1711705;82;20968;-45
2021/04/13 01:25:30;;;;;;;1.30;1.30;;;;;;;7.43;95.78;101137.95;1732234;82;20991;-45
2021/04/13 01:28:07;;;;;;;2.33;1.47;;;;;;;7.43;95.86;101139.84;1732404;82;21178;-44
2021/04/13 01:30:44;;;;;;;2.05;1.50;;;;;;;7.43;95.80;101136.58;1730447;81;21097;-44
2021/04/13 01:33:47;;;;;;;4.58;1.22;;;;;;;7.43;95.76;101139.84;1699172;82;21162;-44
2021/04/13 01:36:27;;;;;;;1.57;1.47;;;;;;;7.44;95.76;101137.41;1732525;81;21202;-45
2021/04/13 01:39:08;;;;;;;3.83;1.32;;;;;;;7.43;95.76;101131.14;1718049;82;21170;-44
2021/04/13 01:44:41;;;;;;;1.37;1.12;;;;;;;7.47;95.75;101132.86;1834685;76;22650;-45
2021/04/13 01:47:11;;;;;;;7.03;2.15;;;;;;;7.42;95.69;101135.45;1759422;80;21142;-44
2021/04/13 01:49:52;;;;;;;2.67;1.98;;;;;;;7.41;95.65;101140.61;1753328;81;21591;-44
2021/04/13 01:52:37;;;;;;;2.02;1.75;;;;;;;7.38;95.68;101134.30;1752678;81;21605;-46
2021/04/13 01:55:14;;;;;;;4.17;1.22;;;;;;;7.35;95.85;101130.72;1771073;80;21537;-46
2021/04/13 01:58:10;;;;;;;3.80;1.05;;;;;;;7.31;96.02;101134.44;1785813;80;21111;-44
2021/04/13 02:00:50;;;;;;;5.35;1.62;;;;;;;7.30;96.11;101129.53;1782505;80;21110;-45
2021/04/13 02:03:25;;;;;;;1.85;1.75;;;;;;;7.30;96.27;101133.61;1786045;80;21157;-44
2021/04/13 02:05:56;;;;;;;3.37;1.20;;;;;;;7.29;96.42;101126.54;1759761;80;21130;-44
2021/04/13 02:08:29;;;;;;;0.78;0.60;;;;;;;7.29;96.62;101117.53;1753368;81;21118;-45
2021/04/13 02:11:07;;;;;;;;;;;;;;;7.31;96.79;101120.84;1756109;81;21178;-45
2021/04/13 02:13:39;;;;;;;2.02;1.90;;;;;;;7.31;96.82;101121.66;1785565;80;20283;-44
2021/04/13 02:16:25;;;;;;;0.55;0.55;;;;;;;7.31;96.86;101119.48;1785812;80;21163;-44
2021/04/13 02:18:53;;;;;;;1.57;1.47;;;;;;;7.30;96.98;101116.48;1785946;80;21153;-46
2021/04/13 02:21:40;;;;;;;0.57;0.55;;;;;;;7.28;97.09;101118.07;1785416;80;21138;-44
2021/04/13 02:24:16;;;;;;;0.53;0.47;;;;;;;7.28;97.18;101117.25;1711019;81;21138;-44
2021/04/13 02:26:57;;;;;;;2.47;1.67;;;;;;;7.28;97.32;101118.07;1753139;81;21099;-45
2021/04/13 02:29:43;;;;;;;1.47;1.37;;;;;;;7.26;97.40;101122.92;1753460;81;21134;-44
2021/04/13 02:32:28;;;;;;;2.50;2.35;;;;;;;7.25;97.55;101125.36;1777401;80;21134;-44
2021/04/13 02:35:00;;;;;;;1.05;0.95;;;;;;;7.24;97.66;101129.13;1785734;80;21130;-44
2021/04/13 02:37:40;;;;;;;1.52;1.42;;;;;;;7.24;97.73;101132.37;1753337;80;21636;-44
2021/04/13 02:40:15;;;;;;;0.62;0.62;;;;;;;7.25;97.87;101140.84;1785950;80;21129;-44
2021/04/13 02:42:44;;;;;;;3.87;1.77;;;;;;;7.26;98.05;101127.00;1786780;80;21145;-45
2021/04/13 02:45:30;;;;;;;0.90;0.90;;;;;;;7.27;98.21;101130.03;1765078;80;21169;-45
2021/04/13 02:48:18;;;;;;;1.70;1.60;;;;;;;7.27;98.35;101131.39;1713143;81;21149;-45
2021/04/13 02:50:47;;;;;;;3.33;1.92;;;;;;;7.29;98.33;101130.61;1753735;81;21418;-44
2021/04/13 02:53:17;;;;;;;4.83;2.72;;;;;;;7.30;98.28;101129.53;1733658;81;21408;-45
2021/04/13 02:55:55;;;;;;;1.25;1.20;;;;;;;7.31;98.27;101128.45;1725177;83;21433;-45
2021/04/13 02:58:25;;;;;;;1.82;1.32;;;;;;;7.31;98.24;101129.00;1739510;82;21161;-44
2021/04/13 03:00:53;;;;;;;3.12;1.52;;;;;;;7.31;98.23;101123.02;1737768;82;21134;-44
2021/04/13 03:03:33;;;;;;;9.10;1.25;;;;;;;7.33;98.19;101127.69;1739078;82;21125;-45
2021/04/13 03:06:01;;;;;;;2.47;2.37;;;;;;;7.34;98.18;101118.99;1791623;80;21102;-45
2021/04/13 03:08:29;;;;;;;0.85;0.85;;;;;;;7.33;98.14;101119.53;1791489;80;21153;-45
2021/04/13 03:11:00;;;;;;;2.05;1.95;;;;;;;7.35;98.11;101123.92;1767312;80;21153;-44
2021/04/13 03:13:30;;;;;;;1.75;1.60;;;;;;;7.33;98.03;101127.69;1790976;78;21156;-44
2021/04/13 03:15:59;;;;;;;1.37;1.35;;;;;;;7.31;98.00;101124.38;1767618;80;21125;-45
2021/04/13 03:18:33;;;;;;;1.75;1.32;;;;;;;7.29;98.07;101125.18;1791775;78;21671;-45
2021/04/13 03:21:10;;;;;;;1.45;1.35;;;;;;;7.30;98.21;101128.17;1791952;80;21429;-44
2021/04/13 03:23:38;;;;;;;8.53;2.65;;;;;;;7.29;98.30;101129.26;1775888;80;21527;-45
2021/04/13 03:26:09;;;;;;;2.05;1.50;;;;;;;7.30;98.38;101130.08;1791714;80;21166;-45
2021/04/13 03:28:49;;;;;;;1.60;1.50;;;;;;;7.31;98.43;101132.53;1791989;80;21125;-45
2021/04/13 03:31:18;;;;;;;1.75;1.65;;;;;;;7.33;98.50;101132.30;1788102;80;21121;-45
2021/04/13 03:33:46;;;;;;;1.10;0.80;;;;;;;7.35;98.72;101129.36;1791799;78;21150;-44
2021/04/13 03:36:23;;;;;;;1.75;1.42;;;;;;;7.37;98.95;101129.91;1791871;80;21134;-45
2021/04/13 03:38:55;;;;;;;0.68;0.68;;;;;;;7.40;99.05;101128.09;1767410;78;21193;-44
2021/04/13 03:41:23;;;;;;;;;;;;;;;7.44;99.15;101127.89;1769904;80;21133;-44
2021/04/13 03:44:01;;;;;;;2.60;1.35;;;;;;;7.45;99.21;101129.55;1791026;79;20296;-44
2021/04/13 03:46:33;;;;;;;2.45;1.60;;;;;;;7.46;99.30;101129.30;1719057;83;21155;-45
2021/04/13 03:49:01;;;;;;;0.57;0.57;;;;;;;7.49;99.38;101134.78;1723906;83;21185;-45
2021/04/13 03:51:33;;;;;;;1.67;1.57;;;;;;;7.52;99.41;101132.96;1689729;83;21152;-44
2021/04/13 03:54:18;;;;;;;2.52;1.20;;;;;;;7.54;99.45;101130.80;1722448;83;21546;-45
2021/04/13 03:56:46;;;;;;;1.95;1.85;;;;;;;7.57;99.52;101132.20;1747209;82;21122;-45
2021/04/13 03:59:24;;;;;;;7.40;1.45;;;;;;;7.60;99.55;101123.58;1748986;81;21139;-45
2021/04/13 04:01:53;;;;;;;1.95;1.85;;;;;;;7.61;99.60;101124.69;1748809;82;21127;-44
2021/04/13 04:04:28;;;;;;;1.37;1.30;;;;;;;7.64;99.56;101118.78;1748834;82;21167;-45
2021/04/13 04:06:58;;;;;;;1.85;1.52;;;;;;;7.67;99.57;101125.09;1719119;83;21143;-45
2021/04/13 04:09:35;;;;;;;3.45;2.22;;;;;;;7.68;99.57;101125.37;1666400;84;21131;-45
2021/04/13 04:12:19;;;;;;;0.80;0.80;;;;;;;7.70;99.56;101131.39;1693572;84;21150;-45
2021/04/13 04:15:08;;;;;;;1.30;1.20;;;;;;;7.70;99.58;101128.67;1705899;83;21186;-44
2021/04/13 04:17:40;;;;;;;3.02;1.05;;;;;;;7.70;99.56;101131.39;1667459;84;21138;-45
2021/04/13 04:20:12;;;;;;;3.10;2.42;;;;;;;7.70;99.76;101125.95;1694719;83;21544;-44
2021/04/13 04:22:49;;;;;;;9.20;3.70;;;;;;;7.72;99.93;101129.27;1671543;83;21158;-44
2021/04/13 04:25:31;;;;;;;3.70;2.27;;;;;;;7.72;100.00;101127.08;1755657;80;21150;-44
2021/04/13 04:28:04;;;;;;;0.80;0.68;;;;;;;7.72;100.00;101129.27;1712402;83;21134;-44
2021/04/13 04:30:35;;;;;;;;;;;;;;;7.74;100.00;101127.12;1734955;81;21117;-44
2021/04/13 04:33:03;;;;;;;1.37;1.37;;;;;;;7.76;100.00;101125.50;1731591;82;20243;-44
2021/04/13 04:35:39;;;;;;;2.62;1.95;;;;;;;7.78;100.00;101122.55;1732397;82;21706;-45
2021/04/13 04:38:24;;;;;;;3.20;1.37;;;;;;;7.78;100.00;101130.17;1732359;82;21202;-45
2021/04/13 04:41:01;;;;;;;9.35;3.62;;;;;;;7.82;100.00;101123.72;1730219;82;21115;-44
2021/04/13 04:43:58;;;;;;;3.20;3.00;;;;;;;7.86;100.00;101128.95;1730857;81;21441;-44
2021/04/13 04:46:42;;;;;;;2.60;1.92;;;;;;;7.88;100.00;101129.53;1727146;83;21158;-45
2021/04/13 04:49:13;;;;;;;1.62;1.50;;;;;;;7.92;100.00;101118.45;1724985;83;21106;-45
2021/04/13 04:51:41;;;;;;;2.00;1.47;;;;;;;7.97;100.00;101115.83;1696660;84;21039;-45
2021/04/13 04:54:09;;;;;;;3.40;0.75;;;;;;;8.04;100.00;101112.41;1696439;84;21183;-44
2021/04/13 04:56:37;;;;;;;2.08;1.57;;;;;;;8.09;100.00;101119.84;1688975;83;21244;-44
2021/04/13 04:59:04;;;;;;;2.08;1.35;;;;;;;8.14;100.00;101114.48;1727436;81;21119;-46
2021/04/13 05:01:32;;;;;;;4.47;1.92;;;;;;;8.18;100.00;101115.11;1722373;83;21130;-44
2021/04/13 05:04:01;;;;;;;2.65;1.02;;;;;;;8.25;100.00;101113.56;1726748;81;21524;-44
2021/04/13 05:06:28;;;;;;;2.27;2.08;;;;;;;8.29;100.00;101109.82;1726708;82;21613;-45
2021/04/13 05:08:56;;;;;;;0.82;0.82;;;;;;;8.33;100.00;101111.80;1726838;82;21589;-45
2021/04/13 05:11:26;;;;;;;5.95;2.60;;;;;;;8.38;100.00;101112.39;1700465;83;21590;-44
2021/04/13 05:13:56;;;;;;;2.42;2.25;;;;;;;8.41;100.00;101113.31;1727026;83;21153;-45
2021/04/13 05:16:23;;;;;;;2.98;1.87;;;;;;;8.47;100.00;101120.48;1726887;82;21141;-44
2021/04/13 05:18:51;;;;;;;1.07;1.02;;;;;;;8.50;100.00;101109.08;1726703;83;21121;-45
2021/04/13 05:21:19;;;;;;;5.78;1.45;;;;;;;8.53;100.00;101109.96;1726931;82;21441;-44
2021/04/13 05:23:47;;;;;;;2.17;1.85;;;;;;;8.58;100.00;101111.91;1726726;83;21277;-45
2021/04/13 05:26:16;;;;;;;4.58;1.98;;;;;;;8.63;100.00;101109.80;1706895;83;21137;-45
2021/04/13 05:28:44;;;;;;;2.10;1.92;;;;;;;8.67;100.00;101110.96;1697988;83;21484;-44
2021/04/13 05:31:12;;;;;;;1.92;1.00;;;;;;;8.72;100.00;101105.58;1699351;83;21592;-44
2021/04/13 05:33:39;;;;;;;5.75;2.65;;;;;;;8.74;100.00;101108.89;1697723;83;21118;-45
2021/04/13 05:36:08;;;;;;;1.42;1.32;;;;;;;8.79;100.00;101111.13;1697783;84;21126;-44
2021/04/13 05:38:38;;;;;;;2.98;2.27;;;;;;;8.84;100.00;101100.84;1697761;83;21134;-44
2021/04/13 05:41:07;;;;;;;1.15;1.05;;;;;;;8.88;100.00;101099.28;1700737;81;21161;-45
2021/04/13 05:43:38;;;;;;;0.85;0.85;;;;;;;8.92;100.00;101100.95;1714748;83;21317;-44
2021/04/13 05:46:06;;;;;;;2.83;2.50;;;;;;;8.96;100.00;101097.47;1739076;81;21173;-44
2021/04/13 05:48:35;;;;;;;0.80;0.80;;;;;;;9.01;100.00;101095.35;1690751;82;21226;-45
2021/04/13 05:51:04;;;;;;;2.83;1.75;;;;;;;9.07;100.00;101089.41;1717268;82;21155;-45
2021/04/13 05:53:32;;;;;;;2.50;1.70;;;;;;;9.13;100.00;101091.14;1736099;82;21206;-45
2021/04/13 05:56:00;;;;;;;1.32;1.25;;;;;;;9.17;100.00;101086.30;1734182;82;21149;-44
2021/04/13 05:58:36;;;;;;;4.53;2.27;;;;;;;9.23;100.00;101088.53;1741018;82;21482;-45
2021/04/13 06:01:06;;;;;;;1.10;1.00;;;;;;;9.30;100.00;101089.68;1744161;81;21535;-45
2021/04/13 06:03:36;;;;;;;5.08;1.15;;;;;;;9.38;100.00;101090.06;1733294;81;21572;-44
2021/04/13 06:06:04;;;;;;;1.42;1.17;;;;;;;9.47;100.00;101096.72;1739799;82;21114;-45
2021/04/13 06:08:32;;;;;;;4.03;1.55;;;;;;;9.56;100.00;101093.52;1739964;82;21134;-45
2021/04/13 06:10:59;;;;;;;1.62;1.52;;;;;;;9.61;100.00;101094.39;1708520;84;21152;-44
2021/04/13 06:13:27;;;;;;;3.27;2.45;;;;;;;9.69;100.00;101099.41;1734034;82;21114;-45
2021/04/13 06:15:55;;;;;;;1.82;1.35;;;;;;;9.79;100.00;101097.33;1736630;82;21674;-45
2021/04/13 06:18:23;;;;;;;3.05;2.85;;;;;;;9.86;99.92;101097.09;1749497;81;21121;-45
2021/04/13 06:20:53;;;;;;;2.27;1.50;;;;;;;9.93;99.56;101105.08;1748332;81;21161;-45
2021/04/13 06:23:22;;;;;;;1.42;1.35;;;;;;;9.97;99.23;101096.12;1711346;83;21133;-45
2021/04/13 06:25:50;;;;;;;3.02;1.85;;;;;;;10.04;99.11;101099.98;1711593;83;21185;-45
2021/04/13 06:28:17;;;;;;;2.12;1.70;;;;;;;10.07;98.69;101100.30;1711557;83;21149;-45
2021/04/13 06:30:44;;;;;;;2.75;1.52;;;;;;;10.10;98.27;101103.87;1681670;83;21168;-44
2021/04/13 06:33:13;;;;;;;2.30;2.10;;;;;;;10.12;98.03;101102.25;1679885;85;21644;-45
2021/04/13 06:35:42;;;;;;;1.85;1.50;;;;;;;10.16;97.71;101106.09;1679818;85;21626;-45
2021/04/13 06:38:13;;;;;;;2.75;2.58;;;;;;;10.19;97.31;101102.86;1690501;83;22035;-45
2021/04/13 06:41:01;;;;;;;3.95;1.75;;;;;;;10.26;97.09;101106.72;1688024;83;21155;-45
2021/04/13 06:43:54;;;;;;;1.85;1.05;;;;;;;10.30;97.05;101107.33;1703658;82;21157;-45
2021/04/13 06:47:05;;;;;;;1.40;0.93;;;;;;;10.41;96.72;101106.04;1765380;81;21133;-45
2021/04/13 06:50:13;;;;;;;6.25;1.90;;;;;;;10.53;95.98;101112.13;1706800;82;21134;-45
2021/04/13 06:53:19;;;;;;;1.90;1.77;;;;;;;10.69;95.00;101113.08;1664322;82;21140;-45
2021/04/13 06:55:55;;;;;;;2.52;2.33;;;;;;;10.84;94.36;101106.88;1731602;82;21201;-45
2021/04/13 06:58:56;;;;;;;2.77;2.00;;;;;;;10.95;93.69;101115.39;1741679;82;21166;-45
2021/04/13 07:01:52;;;;;;;2.27;2.17;;;;;;;11.00;93.02;101114.05;1722438;82;21170;-45
2021/04/13 07:04:40;;;;;;;4.85;2.80;;;;;;;10.97;91.97;101111.30;1733145;81;21192;-45
2021/04/13 07:07:14;;;;;;;5.10;2.27;;;;;;;10.88;91.69;101110.19;1724162;82;21196;-45
2021/04/13 07:09:51;;;;;;;2.08;1.40;;;;;;;10.82;91.96;101114.52;1701823;82;21115;-45
2021/04/13 07:12:38;;;;;;;4.30;2.90;;;;;;;10.84;92.06;101120.00;1724174;81;21166;-45
2021/04/13 07:15:32;;;;;;;3.65;2.45;;;;;;;10.92;92.10;101121.41;1730842;82;21205;-45
2021/04/13 07:18:14;;;;;;;0.60;0.60;;;;;;;10.96;91.59;101119.80;1726388;82;21165;-45
2021/04/13 07:21:06;;;;;;;5.55;1.77;;;;;;;10.92;91.31;101125.50;1733864;81;21141;-45
2021/04/13 07:23:42;;;;;;;2.87;2.60;;;;;;;10.89;91.44;101123.30;1734781;82;21174;-45
2021/04/13 07:26:22;;;;;;;3.75;2.02;;;;;;;10.91;91.16;101122.50;1721546;82;21154;-45
2021/04/13 07:29:08;;;;;;;3.27;3.00;;;;;;;10.93;91.12;101120.33;1720201;82;27415;-45
2021/04/13 07:31:48;;;;;;;4.72;2.37;;;;;;;10.93;90.96;101125.80;1725582;82;21214;-45
2021/04/13 07:34:16;;;;;;;2.00;1.65;;;;;;;10.89;90.79;101123.30;1748754;81;21142;-45
2021/04/13 07:36:48;;;;;;;5.85;1.35;;;;;;;10.89;90.72;101123.30;1720618;82;21633;-45
2021/04/13 07:39:16;;;;;;;7.78;2.67;;;;;;;10.89;90.38;101121.94;1735495;82;21202;-45
2021/04/13 07:41:47;;;;;;;1.50;1.40;;;;;;;10.83;90.11;101128.45;1711550;82;21118;-45
2021/04/13 07:44:26;;;;;;;2.72;1.40;;;;;;;10.75;90.13;101124.30;1731358;82;21234;-45
2021/04/13 07:47:29;;;;;;;4.03;2.15;;;;;;;10.69;90.36;101121.28;1698996;83;21129;-45
2021/04/13 07:49:58;;;;;;;2.60;2.17;;;;;;;10.65;90.52;101125.61;1664609;84;21155;-45
2021/04/13 07:52:49;;;;;;;1.45;1.30;;;;;;;10.70;90.98;101123.73;1720103;82;21203;-52
2021/04/13 07:55:49;;;;;;;1.55;1.45;;;;;;;10.80;91.06;101130.35;1770327;79;21181;-45
2021/04/13 07:58:37;;;;;;;3.08;2.87;;;;;;;10.89;90.86;101124.67;1763347;79;21480;-46
2021/04/13 08:01:07;;;;;;;1.30;1.25;;;;;;;10.95;90.57;101120.34;1780997;80;21102;-45
2021/04/13 08:03:35;;;;;;;2.25;1.72;;;;;;;10.98;90.06;101123.91;1761836;80;21654;-45
2021/04/13 08:06:31;;;;;;;3.67;1.87;;;;;;;10.95;89.88;101120.34;1773357;80;21145;-45
2021/04/13 08:09:27;;;;;;;1.85;1.65;;;;;;;10.91;89.62;101119.77;1768714;80;21656;-45
2021/04/13 08:12:11;;;;;;;2.02;1.75;;;;;;;10.86;89.40;101116.45;1784855;80;21557;-45
2021/04/13 08:14:49;;;;;;;2.67;1.60;;;;;;;10.80;89.47;101118.87;1814521;78;21170;-45
2021/04/13 08:17:27;;;;;;;2.25;2.05;;;;;;;10.73;89.43;101117.76;1784688;80;21142;-45
2021/04/13 08:20:06;;;;;;;3.33;1.60;;;;;;;10.70;89.97;101115.53;1780667;80;21660;-45
2021/04/13 08:22:57;;;;;;;6.33;3.42;;;;;;;10.70;90.53;101118.81;1778804;80;21572;-52
2021/04/13 08:25:41;;;;;;;1.70;1.42;;;;;;;10.71;90.41;101115.83;1752839;81;21166;-45
2021/04/13 08:28:23;;;;;;;2.80;1.47;;;;;;;10.76;90.35;101112.30;1776774;80;21126;-45
2021/04/13 08:34:42;;;;;;;1.87;1.77;;;;;;;10.89;90.05;101104.17;1784313;78;21130;-45
2021/04/13 08:37:51;;;;;;;1.50;1.40;;;;;;;10.96;89.23;101102.84;1784740;80;21449;-45
2021/04/13 08:40:36;;;;;;;2.30;1.30;;;;;;;11.01;88.80;101111.61;1761225;80;21488;-45
2021/04/13 08:43:27;;;;;;;4.80;2.02;;;;;;;11.03;88.31;101103.97;1758934;80;21427;-45
2021/04/13 08:46:16;;;;;;;1.40;1.27;;;;;;;11.05;87.54;101101.77;1751977;80;21125;-45
2021/04/13 08:49:01;;;;;;;6.90;1.55;;;;;;;11.06;86.73;101100.70;1721721;82;21149;-45
2021/04/13 08:51:44;;;;;;;1.35;1.25;;;;;;;11.07;86.47;101102.33;1740927;81;21214;-45
2021/04/13 08:54:31;;;;;;;1.40;1.30;;;;;;;11.11;86.30;101102.64;1723194;82;21169;-45
2021/04/13 08:57:27;;;;;;;7.50;1.87;;;;;;;11.15;86.01;101102.36;1748261;81;21564;-45
2021/04/13 08:59:58;;;;;;;3.20;1.70;;;;;;;11.16;85.83;101103.47;1748194;81;21133;-45
2021/04/13 09:02:35;;;;;;;2.77;1.35;;;;;;;11.09;85.64;101102.89;1711469;82;21173;-45
2021/04/13 09:05:23;;;;;;;0.88;0.88;;;;;;;10.85;85.85;101105.22;1706146;82;21116;-45
2021/04/13 09:08:05;;;;;;;3.37;1.15;;;;;;;10.58;86.60;101099.88;1732879;82;21576;-45
2021/04/13 09:10:43;;;;;;;1.70;1.30;;;;;;;10.38;87.64;101094.27;1704478;83;21141;-46
2021/04/13 09:13:28;;;;;;;1.60;1.50;;;;;;;10.27;88.46;101091.44;1754035;81;21120;-46
2021/04/13 09:16:08;;;;;;;1.27;1.17;;;;;;;10.18;89.21;101091.63;1723971;83;21148;-46
2021/04/13 09:18:53;;;;;;;3.95;0.93;;;;;;;10.15;89.83;101092.16;1741664;81;21786;-46
2021/04/13 09:21:46;;;;;;;1.65;1.55;;;;;;;10.18;90.37;101093.00;1756596;81;21169;-46
2021/04/13 09:24:19;;;;;;;10.03;1.85;;;;;;;10.23;90.61;101094.95;1778427;80;21372;-46
2021/04/13 09:27:15;;;;;;;3.55;1.70;;;;;;;10.24;90.64;101097.44;1759682;80;21198;-46
2021/04/13 09:29:50;;;;;;;1.72;1.32;;;;;;;10.25;90.78;101089.51;1731874;82;21217;-46
2021/04/13 09:32:31;;;;;;;1.05;0.85;;;;;;;10.24;90.82;101089.23;1741976;81;21726;-46
2021/04/13 09:35:36;;;;;;;1.30;1.22;;;;;;;10.23;90.97;101087.58;1756620;81;21099;-46
2021/04/13 09:38:44;;;;;;;1.90;1.47;;;;;;;10.24;90.97;101094.70;1756570;81;21118;-46
2021/04/13 09:41:53;;;;;;;2.35;1.35;;;;;;;10.29;91.16;101092.05;1681813;83;21110;-47
2021/04/13 09:44:36;;;;;;;3.58;3.25;;;;;;;10.31;91.03;101092.61;1756117;81;21139;-46
2021/04/13 09:47:24;;;;;;;0.90;0.45;;;;;;;10.38;91.24;101090.99;1762736;80;21153;-46
2021/04/13 09:50:12;;;;;;;2.05;1.95;;;;;;;10.45;90.89;101089.41;1759514;81;21624;-45
2021/04/13 09:52:46;;;;;;;2.50;1.20;;;;;;;10.49;91.21;101087.81;1793903;78;21146;-45
2021/04/13 09:55:33;;;;;;;0.70;0.70;;;;;;;10.61;91.32;101084.34;1744507;80;21126;-45
2021/04/13 09:58:26;;;;;;;2.20;1.72;;;;;;;10.73;90.97;101084.95;1768101;80;21119;-46
2021/04/13 10:01:28;;;;;;;1.92;1.82;;;;;;;10.78;90.33;101084.69;1781280;80;21188;-46
2021/04/13 10:04:26;;;;;;;;;;;;;;;10.79;90.23;101078.14;1748549;80;21269;-46
2021/04/13 10:07:22;;;;;;;1.07;1.00;;;;;;;10.83;89.92;101075.14;1773326;80;20238;-45
2021/04/13 10:09:50;;;;;;;3.42;1.70;;;;;;;10.87;89.87;101075.72;1774850;80;21107;-46
2021/04/13 10:13:07;;;;;;;1.37;1.25;;;;;;;10.98;89.68;101077.97;1789225;78;21149;-45
2021/04/13 10:16:04;;;;;;;2.08;1.00;;;;;;;11.08;89.15;101067.63;1779994;79;21578;-45
2021/04/13 10:19:04;;;;;;;4.45;2.47;;;;;;;11.19;88.83;101064.63;1780075;79;21108;-46
2021/04/13 10:21:47;;;;;;;4.67;2.05;;;;;;;11.27;88.31;101065.20;1788905;80;21137;-46
2021/04/13 10:24:36;;;;;;;2.67;1.67;;;;;;;11.31;87.74;101060.84;1743458;78;21117;-46
2021/04/13 10:27:44;;;;;;;4.10;1.32;;;;;;;11.26;86.89;101060.28;1788411;80;21153;-45
2021/04/13 10:30:19;;;;;;;1.22;0.70;;;;;;;11.21;86.65;101065.74;1727448;83;21197;-46
2021/04/13 10:33:29;;;;;;;1.12;1.02;;;;;;;11.16;86.56;101073.38;1729078;82;21628;-46
2021/04/13 10:36:31;;;;;;;2.30;1.70;;;;;;;11.15;86.47;101069.53;1709384;82;21141;-45
2021/04/13 10:39:37;;;;;;;4.42;2.92;;;;;;;11.12;86.44;101071.45;1753933;80;21127;-45
2021/04/13 10:42:37;;;;;;;1.32;1.22;;;;;;;11.09;86.49;101072.80;1774868;80;21185;-46
2021/04/13 10:45:37;;;;;;;3.10;2.08;;;;;;;11.07;86.13;101068.69;1777611;79;21735;-46
2021/04/13 10:48:47;;;;;;;2.10;1.95;;;;;;;11.02;86.28;101076.88;1795619;78;21103;-45
2021/04/13 10:51:38;;;;;;;2.08;1.60;;;;;;;10.98;86.12;101070.58;1718001;81;21150;-45
2021/04/13 10:54:12;;;;;;;1.90;1.60;;;;;;;10.96;86.18;101069.20;1681952;82;21690;-45
2021/04/13 10:57:16;;;;;;;2.77;2.40;;;;;;;10.93;86.00;101071.93;1722541;83;21162;-46
2021/04/13 11:00:27;;;;;;;1.85;1.22;;;;;;;10.88;85.72;101080.11;1784236;79;21125;-46
2021/04/13 11:03:30;;;;;;;2.17;1.98;;;;;;;10.75;85.94;101078.66;1793704;79;21547;-45
2021/04/13 11:06:41;;;;;;;3.30;2.05;;;;;;;10.69;86.02;101074.27;1737807;81;21125;-45
2021/04/13 11:09:39;;;;;;;2.77;2.08;;;;;;;10.63;86.12;101075.85;1777556;79;21173;-45
2021/04/13 11:12:20;;;;;;;0.50;0.50;;;;;;;10.58;86.39;101067.08;1794308;79;21580;-45
2021/04/13 11:15:24;;;;;;;0.78;0.78;;;;;;;10.53;86.85;101072.52;1789289;78;21117;-45
2021/04/13 11:18:16;;;;;;;0.98;0.90;;;;;;;10.50;87.01;101076.59;1777613;79;21121;-45
2021/04/13 11:21:20;;;;;;;7.50;1.05;;;;;;;10.49;87.01;101070.86;1794669;79;21110;-45
2021/04/13 11:24:15;;;;;;;1.37;1.27;;;;;;;10.47;87.11;101071.67;1784444;79;21258;-45
2021/04/13 11:27:10;;;;;;;3.33;1.50;;;;;;;10.45;87.29;101073.02;1794348;79;21129;-46
2021/04/13 11:30:13;;;;;;;1.65;1.55;;;;;;;10.42;87.43;101073.55;1783890;79;21126;-45
2021/04/13 11:33:17;;;;;;;4.20;1.05;;;;;;;10.41;87.53;101071.89;1793600;79;21114;-45
2021/04/13 11:35:48;;;;;;;2.20;2.10;;;;;;;10.42;87.47;101070.82;1783371;79;21099;-46
2021/04/13 11:38:33;;;;;;;3.37;1.17;;;;;;;10.41;87.48;101070.52;1767522;78;21486;-45
2021/04/13 11:41:52;;;;;;;0.78;0.72;;;;;;;10.40;87.49;101068.89;1794297;79;21174;-45
2021/04/13 11:44:37;;;;;;;6.22;1.95;;;;;;;10.39;87.49;101071.35;1793291;79;21127;-46
2021/04/13 11:47:22;;;;;;;3.20;1.45;;;;;;;10.38;87.47;101064.22;1716351;80;21102;-45
2021/04/13 11:49:58;;;;;;;3.95;1.82;;;;;;;10.38;87.44;101065.59;1787347;78;21133;-46
2021/04/13 11:52:46;;;;;;;1.05;0.98;;;;;;;10.38;87.53;101060.13;1749628;81;21139;-46
2021/04/13 11:55:33;;;;;;;2.27;1.47;;;;;;;10.37;87.57;101054.39;1733483;81;21131;-46
2021/04/13 11:58:22;;;;;;;3.45;3.15;;;;;;;10.38;87.64;101058.21;1724187;83;21146;-46
2021/04/13 12:00:52;;;;;;;9.23;1.00;;;;;;;10.43;87.62;101058.79;1732403;81;21125;-46
2021/04/13 12:03:23;;;;;;;1.90;1.80;;;;;;;10.45;87.57;101058.80;1729708;82;21194;-45
2021/04/13 12:06:06;;;;;;;1.72;1.27;;;;;;;10.47;87.52;101060.73;1731109;82;21154;-46
2021/04/13 12:08:43;;;;;;;1.77;1.57;;;;;;;10.50;87.34;101062.12;1730987;81;21146;-46
2021/04/13 12:11:17;;;;;;;3.87;2.40;;;;;;;10.51;87.22;101060.50;1730750;82;21458;-45
2021/04/13 12:13:49;;;;;;;1.45;1.30;;;;;;;10.54;87.08;101060.52;1728806;80;21321;-45
2021/04/13 12:16:24;;;;;;;2.77;1.65;;;;;;;10.57;87.00;101059.98;1732278;82;21165;-46
2021/04/13 12:19:11;;;;;;;2.35;2.15;;;;;;;10.61;86.81;101055.64;1731552;82;21114;-46
2021/04/13 12:21:44;;;;;;;1.90;1.32;;;;;;;10.66;86.66;101057.58;1744677;81;21170;-45
2021/04/13 12:24:41;;;;;;;2.08;1.70;;;;;;;10.68;86.34;101052.12;1750536;81;21140;-45
2021/04/13 12:27:32;;;;;;;3.42;0.90;;;;;;;10.71;85.75;101054.88;1706539;82;21571;-45
2021/04/13 12:30:32;;;;;;;0.53;0.53;;;;;;;10.73;85.27;101050.78;1730079;81;21129;-45
2021/04/13 12:33:01;;;;;;;8.23;1.55;;;;;;;10.75;84.43;101050.50;1752771;81;21145;-45
2021/04/13 12:35:56;;;;;;;3.15;0.98;;;;;;;10.78;83.95;101040.95;1710767;83;21178;-46
2021/04/13 12:38:49;;;;;;;0.90;0.90;;;;;;;10.79;83.63;101046.16;1721270;83;21929;-45